createdAt,value
2018-09-27T00:00:20.886Z,78.50
2018-09-27T00:02:49.295Z,78.90
2018-09-27T00:05:17.803Z,79.10
2018-09-27T00:07:46.412Z,79.60
2018-09-27T00:10:14.890Z,79.60
2018-09-27T00:12:43.270Z,79.40
2018-09-27T00:15:11.678Z,79.80
2018-09-27T00:17:40.082Z,79.20
2018-09-27T00:20:08.497Z,79.40
2018-09-27T00:22:36.964Z,78.80
2018-09-27T00:25:05.925Z,79.00
2018-09-27T00:27:34.328Z,79.20
2018-09-27T00:30:02.781Z,78.90
2018-09-27T00:32:31.188Z,79.20
2018-09-27T00:34:59.575Z,79.50
2018-09-27T00:37:28.048Z,79.60
2018-09-27T00:39:56.697Z,79.60
2018-09-27T00:42:25.178Z,79.50
2018-09-27T00:44:53.907Z,79.50
2018-09-27T00:47:22.403Z,79.50
2018-09-27T00:49:51.112Z,79.40
2018-09-27T00:52:19.583Z,79.70
2018-09-27T00:54:48.225Z,79.70
2018-09-27T00:57:16.744Z,79.40
2018-09-27T00:59:45.397Z,79.40
2018-09-27T01:02:13.898Z,80.10
2018-09-27T01:04:42.937Z,80.20
2018-09-27T01:07:11.440Z,80.00
2018-09-27T01:09:39.972Z,80.20
2018-09-27T01:12:08.484Z,80.30
2018-09-27T01:14:36.943Z,80.30
2018-09-27T01:17:05.408Z,80.40
2018-09-27T01:19:33.847Z,80.40
2018-09-27T01:22:02.283Z,80.30
2018-09-27T01:24:30.823Z,80.50
2018-09-27T01:26:59.229Z,79.90
2018-09-27T01:29:27.625Z,80.40
2018-09-27T01:31:56.030Z,80.50
2018-09-27T01:34:24.647Z,80.70
2018-09-27T01:36:53.077Z,80.80
2018-09-27T01:39:21.608Z,80.70
2018-09-27T01:41:50.019Z,80.70
2018-09-27T01:44:18.754Z,80.80
2018-09-27T01:46:47.189Z,80.90
2018-09-27T01:49:15.601Z,80.20
2018-09-27T01:51:44.511Z,80.70
2018-09-27T01:54:13.194Z,80.70
2018-09-27T01:56:41.593Z,80.80
2018-09-27T01:59:10.025Z,80.60
2018-09-27T02:01:38.430Z,80.40
2018-09-27T02:04:06.974Z,80.80
2018-09-27T02:06:35.455Z,80.40
2018-09-27T02:09:05.820Z,80.60
2018-09-27T02:11:34.243Z,81.40
2018-09-27T02:14:02.811Z,81.20
2018-09-27T02:16:31.296Z,81.90
2018-09-27T02:18:59.877Z,80.80
2018-09-27T02:21:28.300Z,81.00
2018-09-27T02:23:56.711Z,81.00
2018-09-27T02:26:25.354Z,81.00
2018-09-27T02:28:53.948Z,81.40
2018-09-27T02:31:22.467Z,81.10
2018-09-27T02:33:50.855Z,81.00
2018-09-27T02:36:19.326Z,81.80
2018-09-27T02:38:47.723Z,82.20
2018-09-27T02:41:16.151Z,82.70
2018-09-27T02:43:44.541Z,82.30
2018-09-27T02:46:12.959Z,82.30
2018-09-27T02:48:41.951Z,82.20
2018-09-27T02:51:10.516Z,82.60
2018-09-27T02:53:39.206Z,82.90
2018-09-27T02:56:07.623Z,82.80
2018-09-27T02:58:36.038Z,82.60
2018-09-27T03:01:04.481Z,82.30
2018-09-27T03:03:32.892Z,82.20
2018-09-27T03:06:01.317Z,81.60
2018-09-27T03:08:29.731Z,82.00
2018-09-27T03:10:58.104Z,81.50
2018-09-27T03:13:26.485Z,81.80
2018-09-27T03:15:54.893Z,81.90
2018-09-27T03:18:23.400Z,82.00
2018-09-27T03:20:51.972Z,82.60
2018-09-27T03:23:20.543Z,82.90
2018-09-27T03:25:49.201Z,83.00
2018-09-27T03:28:18.822Z,83.60
2018-09-27T03:30:47.705Z,82.90
2018-09-27T03:33:16.227Z,83.10
2018-09-27T03:35:46.919Z,82.90
2018-09-27T03:38:15.525Z,82.90
2018-09-27T03:40:44.252Z,82.70
2018-09-27T03:43:12.577Z,82.60
2018-09-27T03:45:41.003Z,82.50
2018-09-27T03:48:09.505Z,82.40
2018-09-27T03:50:37.910Z,82.20
2018-09-27T03:53:06.467Z,81.90
2018-09-27T03:55:34.903Z,81.70
2018-09-27T03:58:03.342Z,81.60
2018-09-27T04:00:31.756Z,81.50
2018-09-27T04:03:00.396Z,81.80
2018-09-27T04:05:28.797Z,81.80
2018-09-27T04:07:57.237Z,82.40
2018-09-27T04:10:25.647Z,83.10
2018-09-27T04:12:54.107Z,83.70
2018-09-27T04:15:22.856Z,84.00
2018-09-27T04:17:51.255Z,83.50
2018-09-27T04:20:19.786Z,83.30
2018-09-27T04:22:48.199Z,83.30
2018-09-27T04:25:16.601Z,83.60
2018-09-27T04:27:45.148Z,82.90
2018-09-27T04:30:13.643Z,82.70
2018-09-27T04:32:42.064Z,82.90
2018-09-27T04:35:10.592Z,82.30
2018-09-27T04:37:39.105Z,82.20
2018-09-27T04:40:07.636Z,82.60
2018-09-27T04:42:36.144Z,82.70
2018-09-27T04:45:04.927Z,82.80
2018-09-27T04:47:33.337Z,82.90
2018-09-27T04:50:01.746Z,82.70
2018-09-27T04:52:30.168Z,83.20
2018-09-27T04:54:58.792Z,83.10
2018-09-27T04:57:27.257Z,83.00
2018-09-27T04:59:55.698Z,83.10
2018-09-27T05:02:24.114Z,82.80
2018-09-27T05:04:52.555Z,82.90
2018-09-27T05:07:20.962Z,82.40
2018-09-27T05:09:49.374Z,82.50
2018-09-27T05:12:18.505Z,83.00
2018-09-27T05:14:46.950Z,83.90
2018-09-27T05:17:15.363Z,83.70
2018-09-27T05:19:43.881Z,83.20
2018-09-27T05:22:12.270Z,83.10
2018-09-27T05:24:40.686Z,83.20
2018-09-27T05:27:09.449Z,82.70
2018-09-27T05:29:37.821Z,83.30
2018-09-27T05:32:06.564Z,83.30
2018-09-27T05:34:35.000Z,83.60
2018-09-27T05:37:03.416Z,83.50
2018-09-27T05:39:31.842Z,83.30
2018-09-27T05:42:00.386Z,83.20
2018-09-27T05:44:28.848Z,83.20
2018-09-27T05:46:57.269Z,83.00
2018-09-27T05:49:25.784Z,82.80
2018-09-27T05:51:54.185Z,82.50
2018-09-27T05:54:22.610Z,83.40
2018-09-27T05:56:51.123Z,82.70
2018-09-27T05:59:19.646Z,82.80
2018-09-27T06:01:48.093Z,82.90
2018-09-27T06:04:16.622Z,83.00
2018-09-27T06:06:45.071Z,83.30
2018-09-27T06:09:13.624Z,83.20
2018-09-27T06:11:42.531Z,83.30
2018-09-27T06:14:10.945Z,83.50
2018-09-27T06:16:39.605Z,83.30
2018-09-27T06:19:08.836Z,83.20
2018-09-27T06:21:37.879Z,83.30
2018-09-27T06:24:06.547Z,83.40
2018-09-27T06:26:35.061Z,83.10
2018-09-27T06:29:03.837Z,83.10
2018-09-27T06:31:32.299Z,83.40
2018-09-27T06:34:00.775Z,83.30
2018-09-27T06:36:29.211Z,83.60
2018-09-27T06:38:57.640Z,83.60
2018-09-27T06:41:26.468Z,83.90
2018-09-27T06:43:54.823Z,83.60
2018-09-27T06:46:23.366Z,83.30
2018-09-27T06:48:51.876Z,83.80
2018-09-27T06:51:20.248Z,83.80
2018-09-27T06:53:48.667Z,83.70
2018-09-27T06:56:17.174Z,83.60
2018-09-27T06:58:45.525Z,83.80
2018-09-27T07:01:13.936Z,83.80
2018-09-27T07:03:42.362Z,83.60
2018-09-27T07:06:10.773Z,84.00
2018-09-27T07:08:39.225Z,84.10
2018-09-27T07:11:07.647Z,84.20
2018-09-27T07:13:36.091Z,84.30
2018-09-27T07:16:04.499Z,84.60
2018-09-27T07:18:33.170Z,84.90
2018-09-27T07:21:01.639Z,84.60
2018-09-27T07:23:30.053Z,84.60
2018-09-27T07:25:58.451Z,84.30
2018-09-27T07:28:26.865Z,84.80
2018-09-27T07:30:55.349Z,85.10
2018-09-27T07:33:23.830Z,84.70
2018-09-27T07:35:52.285Z,84.90
2018-09-27T07:38:20.716Z,84.20
2018-09-27T07:40:49.121Z,84.40
2018-09-27T07:43:17.693Z,84.30
2018-09-27T07:45:46.114Z,84.40
2018-09-27T07:48:14.540Z,84.00
2018-09-27T07:50:43.003Z,84.40
2018-09-27T07:53:11.429Z,84.00
2018-09-27T07:55:39.986Z,84.50
2018-09-27T07:58:08.752Z,84.50
2018-09-27T08:00:40.291Z,83.70
2018-09-27T08:03:09.211Z,83.70
2018-09-27T08:05:38.078Z,83.50
2018-09-27T08:08:06.836Z,83.60
2018-09-27T08:10:35.381Z,83.90
2018-09-27T08:13:03.817Z,83.10
2018-09-27T08:15:32.227Z,83.30
2018-09-27T08:18:00.657Z,81.70
2018-09-27T08:20:29.087Z,79.10
2018-09-27T08:22:57.669Z,74.30
2018-09-27T08:25:26.172Z,62.50
2018-09-27T08:27:54.681Z,55.30
2018-09-27T08:30:23.534Z,48.30
2018-09-27T08:32:52.004Z,47.50
2018-09-27T08:35:20.448Z,41.30
2018-09-27T08:37:48.916Z,40.40
2018-09-27T08:40:17.417Z,40.60
2018-09-27T08:42:45.819Z,36.80
2018-09-27T08:45:14.550Z,35.80
2018-09-27T08:47:42.795Z,33.50
2018-09-27T08:50:11.235Z,32.80
2018-09-27T08:52:40.217Z,31.80
2018-09-27T08:55:08.675Z,31.40
2018-09-27T08:57:37.185Z,29.40
2018-09-27T09:00:06.008Z,29.50
2018-09-27T09:02:34.459Z,30.50
2018-09-27T09:05:02.917Z,30.80
2018-09-27T09:07:31.394Z,28.20
2018-09-27T09:09:59.798Z,29.20
2018-09-27T09:12:28.232Z,28.70
2018-09-27T09:14:56.687Z,29.30
2018-09-27T09:17:25.239Z,27.30
2018-09-27T09:19:53.670Z,29.90
2018-09-27T09:22:22.127Z,26.30
2018-09-27T09:24:50.672Z,25.40
2018-09-27T09:27:19.070Z,25.00
2018-09-27T09:29:47.650Z,25.00
2018-09-27T09:32:16.304Z,25.90
2018-09-27T09:34:44.822Z,26.80
2018-09-27T09:37:13.262Z,26.00
2018-09-27T09:39:41.769Z,24.40
2018-09-27T09:42:10.191Z,22.90
2018-09-27T09:44:38.604Z,24.40
2018-09-27T09:47:07.225Z,24.20
2018-09-27T09:49:35.636Z,24.70
2018-09-27T09:52:04.167Z,23.00
2018-09-27T09:54:32.584Z,21.70
2018-09-27T09:57:01.017Z,21.60
2018-09-27T09:59:29.656Z,23.90
2018-09-27T10:01:58.059Z,23.10
2018-09-27T10:04:26.527Z,22.50
2018-09-27T10:06:54.957Z,23.50
2018-09-27T10:09:23.498Z,23.30
2018-09-27T10:11:51.921Z,21.70
2018-09-27T10:14:20.337Z,21.30
2018-09-27T10:16:48.742Z,21.30
2018-09-27T10:19:17.153Z,21.30
2018-09-27T10:21:45.684Z,21.60
2018-09-27T10:24:14.211Z,19.70
2018-09-27T10:26:42.631Z,19.40
2018-09-27T10:29:11.036Z,19.20
2018-09-27T10:31:39.615Z,22.60
2018-09-27T10:34:08.082Z,20.00
2018-09-27T10:36:36.563Z,18.50
2018-09-27T10:39:07.672Z,19.80
2018-09-27T10:41:36.076Z,18.30
2018-09-27T10:44:04.543Z,19.20
2018-09-27T10:46:33.059Z,18.40
2018-09-27T10:49:01.478Z,18.00
2018-09-27T10:51:29.950Z,18.60
2018-09-27T10:53:58.348Z,18.30
2018-09-27T10:56:26.781Z,18.30
2018-09-27T10:58:55.197Z,19.50
2018-09-27T11:01:23.628Z,18.10
2018-09-27T11:03:52.036Z,17.90
2018-09-27T11:06:20.450Z,17.90
2018-09-27T11:08:48.877Z,16.90
2018-09-27T11:11:17.301Z,17.60
2018-09-27T11:13:45.714Z,17.30
2018-09-27T11:16:14.148Z,18.90
2018-09-27T11:18:42.591Z,18.30
2018-09-27T11:21:11.016Z,19.00
2018-09-27T11:23:39.429Z,19.60
2018-09-27T11:26:07.909Z,19.60
2018-09-27T11:28:41.732Z,19.10
2018-09-27T11:31:15.301Z,19.90
2018-09-27T11:33:43.707Z,20.10
2018-09-27T11:36:12.545Z,19.10
2018-09-27T11:38:40.966Z,19.30
2018-09-27T11:41:09.343Z,19.70
2018-09-27T11:43:37.741Z,18.90
2018-09-27T11:46:06.177Z,20.50
2018-09-27T11:48:34.591Z,20.60
2018-09-27T11:51:03.069Z,19.90
2018-09-27T11:53:31.548Z,19.00
2018-09-27T11:56:00.050Z,18.90
2018-09-27T11:58:28.441Z,17.90
2018-09-27T12:00:56.906Z,17.50
2018-09-27T12:03:25.413Z,18.50
2018-09-27T12:05:53.850Z,17.20
2018-09-27T12:08:22.315Z,18.80
2018-09-27T12:10:51.295Z,17.70
2018-09-27T12:13:19.741Z,17.60
2018-09-27T12:15:48.136Z,18.10
2018-09-27T12:18:16.564Z,18.00
2018-09-27T12:20:44.982Z,17.60
2018-09-27T12:23:13.401Z,18.60
2018-09-27T12:25:41.921Z,18.30
2018-09-27T12:28:10.310Z,18.30
2018-09-27T12:30:38.751Z,18.60
2018-09-27T12:33:07.303Z,19.40
2018-09-27T12:35:35.748Z,19.40
2018-09-27T12:38:04.170Z,20.20
2018-09-27T12:40:33.558Z,19.40
2018-09-27T12:43:02.070Z,19.20
2018-09-27T12:45:30.606Z,19.80
2018-09-27T12:47:59.054Z,19.60
2018-09-27T12:50:27.531Z,19.70
2018-09-27T12:52:56.028Z,19.80
2018-09-27T12:55:24.383Z,20.00
2018-09-27T12:57:52.840Z,20.20
2018-09-27T13:00:21.264Z,21.00
2018-09-27T13:02:49.800Z,19.20
2018-09-27T13:05:18.103Z,20.60
2018-09-27T13:07:46.495Z,20.70
2018-09-27T13:10:14.975Z,21.60
2018-09-27T13:12:43.395Z,21.40
2018-09-27T13:15:11.908Z,22.10
2018-09-27T13:17:40.346Z,22.00
2018-09-27T13:20:09.111Z,22.10
2018-09-27T13:22:38.420Z,22.00
2018-09-27T13:25:06.954Z,22.50
2018-09-27T13:27:35.478Z,22.20
2018-09-27T13:30:04.337Z,23.20
2018-09-27T13:32:32.748Z,23.80
2018-09-27T13:35:01.177Z,23.20
2018-09-27T13:37:29.655Z,23.80
2018-09-27T13:39:58.183Z,24.50
2018-09-27T13:42:26.691Z,25.10
2018-09-27T13:44:55.157Z,25.00
2018-09-27T13:47:23.573Z,24.10
2018-09-27T13:49:51.983Z,24.70
2018-09-27T13:52:20.393Z,24.90
2018-09-27T13:54:48.797Z,24.80
2018-09-27T13:57:17.329Z,25.00
2018-09-27T13:59:45.711Z,24.90
2018-09-27T14:02:14.123Z,24.90
2018-09-27T14:04:42.556Z,24.80
2018-09-27T14:07:10.999Z,25.10
2018-09-27T14:09:39.442Z,24.90
2018-09-27T14:12:07.872Z,25.00
2018-09-27T14:14:36.646Z,25.80
2018-09-27T14:17:05.198Z,26.60
2018-09-27T14:19:33.557Z,26.70
2018-09-27T14:22:02.062Z,26.70
2018-09-27T14:24:30.511Z,27.30
2018-09-27T14:26:58.977Z,28.10
2018-09-27T14:29:27.392Z,28.10
2018-09-27T14:31:55.786Z,29.70
2018-09-27T14:34:24.224Z,29.70
2018-09-27T14:36:52.637Z,31.40
2018-09-27T14:39:21.184Z,30.70
2018-09-27T14:41:49.584Z,31.60
2018-09-27T14:44:18.000Z,32.80
2018-09-27T14:46:46.528Z,33.80
2018-09-27T14:49:14.940Z,34.50
2018-09-27T14:51:43.368Z,34.30
2018-09-27T14:54:11.867Z,35.10
2018-09-27T14:56:40.304Z,35.50
2018-09-27T14:59:08.749Z,34.20
2018-09-27T15:01:37.186Z,35.20
2018-09-27T15:04:05.895Z,35.20
2018-09-27T15:06:34.530Z,35.20
2018-09-27T15:09:02.948Z,36.10
2018-09-27T15:11:31.381Z,35.40
2018-09-27T15:13:59.816Z,35.00
2018-09-27T15:16:28.419Z,35.20
2018-09-27T15:18:56.931Z,33.10
2018-09-27T15:21:25.428Z,34.50
2018-09-27T15:23:54.009Z,35.00
2018-09-27T15:26:22.473Z,35.70
2018-09-27T15:28:50.935Z,37.00
2018-09-27T15:31:19.386Z,36.40
2018-09-27T15:33:47.852Z,36.80
2018-09-27T15:36:16.292Z,38.60
2018-09-27T15:38:44.703Z,37.90
2018-09-27T15:41:13.122Z,39.30
2018-09-27T15:43:41.528Z,38.70
2018-09-27T15:46:09.943Z,37.60
2018-09-27T15:48:38.523Z,37.80
2018-09-27T15:51:07.048Z,37.80
2018-09-27T15:53:35.520Z,38.90
2018-09-27T15:56:03.994Z,38.00
2018-09-27T15:58:33.172Z,38.70
2018-09-27T16:01:01.679Z,39.60
2018-09-27T16:03:30.111Z,39.30
2018-09-27T16:05:59.466Z,41.00
2018-09-27T16:08:27.891Z,40.60
2018-09-27T16:10:56.430Z,40.40
2018-09-27T16:13:24.996Z,41.50
2018-09-27T16:15:53.432Z,41.40
2018-09-27T16:18:21.980Z,41.20
2018-09-27T16:20:50.415Z,42.90
2018-09-27T16:23:18.849Z,41.40
2018-09-27T16:25:47.284Z,42.00
2018-09-27T16:28:15.732Z,42.00
2018-09-27T16:30:44.145Z,42.00
2018-09-27T16:33:12.708Z,42.80
2018-09-27T16:35:41.256Z,43.70
2018-09-27T16:38:09.656Z,44.30
2018-09-27T16:40:38.113Z,44.60
2018-09-27T16:43:07.257Z,44.50
2018-09-27T16:45:35.746Z,44.60
2018-09-27T16:48:04.319Z,44.90
2018-09-27T16:50:32.814Z,45.40
2018-09-27T16:53:01.351Z,46.10
2018-09-27T16:55:29.794Z,47.40
2018-09-27T16:57:58.232Z,48.30
2018-09-27T17:00:26.801Z,46.50
2018-09-27T17:02:55.611Z,45.80
2018-09-27T17:05:24.088Z,47.10
2018-09-27T17:07:52.506Z,44.90
2018-09-27T17:10:20.931Z,45.20
2018-09-27T17:12:49.320Z,45.70
2018-09-27T17:15:17.780Z,46.50
2018-09-27T17:17:46.360Z,46.60
2018-09-27T17:20:14.744Z,47.20
2018-09-27T17:22:43.349Z,48.50
2018-09-27T17:25:11.747Z,50.30
2018-09-27T17:27:40.202Z,51.00
2018-09-27T17:30:08.795Z,50.30
2018-09-27T17:32:37.277Z,51.60
2018-09-27T17:35:05.816Z,53.30
2018-09-27T17:37:34.311Z,53.30
2018-09-27T17:40:03.309Z,54.40
2018-09-27T17:42:31.767Z,53.90
2018-09-27T17:45:00.311Z,54.30
2018-09-27T17:47:28.717Z,52.90
2018-09-27T17:49:57.252Z,52.40
2018-09-27T17:52:25.665Z,53.50
2018-09-27T17:54:54.097Z,53.50
2018-09-27T17:57:23.494Z,53.40
2018-09-27T17:59:54.143Z,54.30
2018-09-27T18:02:23.347Z,54.20
2018-09-27T18:04:51.888Z,56.50
2018-09-27T18:07:20.575Z,54.60
2018-09-27T18:09:49.284Z,54.70
2018-09-27T18:12:17.751Z,56.90
2018-09-27T18:14:46.193Z,57.00
2018-09-27T18:17:14.664Z,57.00
2018-09-27T18:19:43.281Z,57.90
2018-09-27T18:22:11.659Z,57.50
2018-09-27T18:24:40.090Z,58.10
2018-09-27T18:27:08.602Z,58.20
2018-09-27T18:29:37.022Z,58.40
2018-09-27T18:32:05.601Z,59.30
2018-09-27T18:34:34.215Z,58.60
2018-09-27T18:37:02.639Z,59.00
2018-09-27T18:39:31.059Z,59.10
2018-09-27T18:41:59.469Z,59.00
2018-09-27T18:44:27.944Z,59.40
2018-09-27T18:46:56.350Z,59.80
2018-09-27T18:49:24.871Z,59.70
2018-09-27T18:51:53.354Z,60.10
2018-09-27T18:54:21.776Z,60.00
2018-09-27T18:56:50.322Z,59.60
2018-09-27T18:59:18.772Z,59.20
2018-09-27T19:01:47.228Z,59.50
2018-09-27T19:04:15.811Z,59.80
2018-09-27T19:06:44.224Z,60.10
2018-09-27T19:09:14.105Z,59.80
2018-09-27T19:11:42.515Z,59.60
2018-09-27T19:14:10.955Z,60.50
2018-09-27T19:16:39.388Z,60.80
2018-09-27T19:19:07.864Z,61.50
2018-09-27T19:21:36.292Z,61.60
2018-09-27T19:24:04.702Z,61.10
2018-09-27T19:26:33.100Z,61.20
2018-09-27T19:29:01.683Z,61.20
2018-09-27T19:31:30.107Z,61.50
2018-09-27T19:33:58.651Z,60.40
2018-09-27T19:36:27.303Z,61.00
2018-09-27T19:38:55.744Z,61.80
2018-09-27T19:41:24.176Z,62.10
2018-09-27T19:43:52.741Z,62.20
2018-09-27T19:46:21.167Z,62.40
2018-09-27T19:48:49.684Z,62.90
2018-09-27T19:51:18.178Z,62.70
2018-09-27T19:53:46.684Z,62.70
2018-09-27T19:56:15.302Z,63.30
2018-09-27T19:58:43.721Z,63.20
2018-09-27T20:01:12.148Z,63.30
2018-09-27T20:03:40.585Z,64.10
2018-09-27T20:06:09.042Z,63.90
2018-09-27T20:08:37.538Z,63.90
2018-09-27T20:11:06.225Z,64.10
2018-09-27T20:13:34.650Z,64.20
2018-09-27T20:16:03.964Z,64.60
2018-09-27T20:18:32.383Z,65.10
2018-09-27T20:21:01.246Z,65.40
2018-09-27T20:23:29.724Z,65.20
2018-09-27T20:25:58.313Z,65.80
2018-09-27T20:28:26.794Z,65.90
2018-09-27T20:30:55.322Z,66.20
2018-09-27T20:33:23.854Z,66.20
2018-09-27T20:35:52.277Z,66.10
2018-09-27T20:38:20.701Z,66.10
2018-09-27T20:40:49.114Z,66.60
2018-09-27T20:43:17.549Z,67.20
2018-09-27T20:45:45.979Z,68.00
2018-09-27T20:48:14.565Z,68.40
2018-09-27T20:50:45.879Z,68.30
2018-09-27T20:53:16.094Z,69.20
2018-09-27T20:55:46.226Z,69.60
2018-09-27T20:58:16.231Z,68.90
2018-09-27T21:00:46.112Z,68.90
2018-09-27T21:03:15.152Z,68.90
2018-09-27T21:05:44.499Z,69.20
2018-09-27T21:08:20.272Z,69.10
2018-09-27T21:10:53.346Z,69.60
2018-09-27T21:13:24.373Z,69.70
2018-09-27T21:15:54.977Z,70.00
2018-09-27T21:18:25.641Z,70.20
2018-09-27T21:20:55.543Z,70.00
2018-09-27T21:23:29.600Z,70.00
2018-09-27T21:26:00.490Z,70.10
2018-09-27T21:28:29.015Z,70.10
2018-09-27T21:30:57.447Z,70.50
2018-09-27T21:33:26.027Z,69.80
2018-09-27T21:35:55.056Z,70.00
2018-09-27T21:38:23.468Z,70.50
2018-09-27T21:40:52.010Z,70.80
2018-09-27T21:43:20.618Z,70.90
2018-09-27T21:45:48.974Z,71.40
2018-09-27T21:48:17.371Z,70.70
2018-09-27T21:50:45.861Z,71.20
2018-09-27T21:53:14.298Z,71.40
2018-09-27T21:55:42.736Z,71.40
2018-09-27T21:58:11.164Z,70.90
2018-09-27T22:00:39.625Z,71.30
2018-09-27T22:03:08.027Z,71.40
2018-09-27T22:05:36.558Z,70.20
2018-09-27T22:08:04.965Z,70.50
2018-09-27T22:10:33.363Z,71.10
2018-09-27T22:13:01.753Z,71.00
2018-09-27T22:15:30.168Z,71.70
2018-09-27T22:17:58.581Z,72.60
2018-09-27T22:20:26.999Z,72.10
2018-09-27T22:22:55.500Z,72.40
2018-09-27T22:25:23.902Z,72.80
2018-09-27T22:27:52.531Z,73.20
2018-09-27T22:30:20.963Z,73.60
2018-09-27T22:32:49.452Z,73.50
2018-09-27T22:35:18.003Z,74.10
2018-09-27T22:37:46.446Z,74.10
2018-09-27T22:40:14.867Z,74.10
2018-09-27T22:42:43.436Z,74.60
2018-09-27T22:45:11.991Z,74.40
2018-09-27T22:47:40.395Z,74.00
2018-09-27T22:50:08.924Z,74.30
2018-09-27T22:52:38.144Z,74.20
2018-09-27T22:55:06.609Z,74.50
2018-09-27T22:57:35.049Z,74.10
2018-09-27T23:00:03.515Z,74.50
2018-09-27T23:02:31.948Z,75.10
2018-09-27T23:05:00.387Z,74.90
2018-09-27T23:07:28.784Z,75.40
2018-09-27T23:09:57.336Z,75.60
2018-09-27T23:12:25.757Z,75.70
2018-09-27T23:14:54.220Z,76.00
2018-09-27T23:17:22.631Z,76.20
2018-09-27T23:19:51.110Z,76.20
2018-09-27T23:22:19.514Z,76.20
2018-09-27T23:24:47.919Z,76.20
2018-09-27T23:27:16.377Z,76.60
2018-09-27T23:29:44.786Z,76.60
2018-09-27T23:32:13.308Z,76.40
2018-09-27T23:34:41.793Z,76.40
2018-09-27T23:37:10.230Z,76.20
2018-09-27T23:39:38.635Z,76.60
2018-09-27T23:42:07.084Z,77.00
2018-09-27T23:44:35.595Z,76.70
2018-09-27T23:47:04.015Z,76.90
2018-09-27T23:49:33.307Z,77.40
2018-09-27T23:52:01.747Z,77.20
2018-09-27T23:54:30.308Z,77.30
2018-09-27T23:56:58.712Z,77.20
2018-09-27T23:59:27.226Z,77.20
